sensor_id;sensor_type;location;lat;lon;timestamp;temperature;humidity
14053;DHT22;7101;51.600;7.310;2024-03-02T00:00:56;7.60;96.40
14053;DHT22;7101;51.600;7.310;2024-03-02T00:03:25;7.60;99.90
14053;DHT22;7101;51.600;7.310;2024-03-02T00:05:52;7.60;99.90
14053;DHT22;7101;51.600;7.310;2024-03-02T00:08:24;7.70;99.90
14053;DHT22;7101;51.600;7.310;2024-03-02T00:10:57;7.60;99.90
14053;DHT22;7101;51.600;7.310;2024-03-02T00:13:24;7.60;99.90
14053;DHT22;7101;51.600;7.310;2024-03-02T00:15:53;7.50;99.90
14053;DHT22;7101;51.600;7.310;2024-03-02T00:18:24;7.50;99.90
14053;DHT22;7101;51.600;7.310;2024-03-02T00:20:54;7.50;99.90
14053;DHT22;7101;51.600;7.310;2024-03-02T00:23:22;7.40;99.90
14053;DHT22;7101;51.600;7.310;2024-03-02T00:25:51;7.40;99.90
14053;DHT22;7101;51.600;7.310;2024-03-02T00:28:20;7.50;99.90
14053;DHT22;7101;51.600;7.310;2024-03-02T00:30:55;7.40;99.90
14053;DHT22;7101;51.600;7.310;2024-03-02T00:33:27;7.40;99.90
14053;DHT22;7101;51.600;7.310;2024-03-02T00:35:56;7.40;99.90
14053;DHT22;7101;51.600;7.310;2024-03-02T00:38:23;7.40;99.90
14053;DHT22;7101;51.600;7.310;2024-03-02T00:40:50;7.40;99.90
14053;DHT22;7101;51.600;7.310;2024-03-02T00:43:41;7.30;99.90
14053;DHT22;7101;51.600;7.310;2024-03-02T00:46:08;7.40;99.90
14053;DHT22;7101;51.600;7.310;2024-03-02T00:48:35;7.30;99.90
14053;DHT22;7101;51.600;7.310;2024-03-02T00:51:04;7.40;99.90
14053;DHT22;7101;51.600;7.310;2024-03-02T00:53:31;7.40;99.90
14053;DHT22;7101;51.600;7.310;2024-03-02T00:55:59;7.40;99.90
14053;DHT22;7101;51.600;7.310;2024-03-02T00:58:26;7.40;99.90
14053;DHT22;7101;51.600;7.310;2024-03-02T01:00:53;7.40;99.90
14053;DHT22;7101;51.600;7.310;2024-03-02T01:03:20;7.40;99.90
14053;DHT22;7101;51.600;7.310;2024-03-02T01:05:46;7.50;99.90
14053;DHT22;7101;51.600;7.310;2024-03-02T01:08:14;7.50;99.90
14053;DHT22;7101;51.600;7.310;2024-03-02T01:10:41;7.50;99.90
14053;DHT22;7101;51.600;7.310;2024-03-02T01:13:08;7.40;99.90
14053;DHT22;7101;51.600;7.310;2024-03-02T01:15:35;7.40;99.90
14053;DHT22;7101;51.600;7.310;2024-03-02T01:18:02;7.50;84.90
14053;DHT22;7101;51.600;7.310;2024-03-02T01:20:29;7.50;64.50
14053;DHT22;7101;51.600;7.310;2024-03-02T01:22:56;7.50;43.80
14053;DHT22;7101;51.600;7.310;2024-03-02T01:25:24;7.60;1.00
14053;DHT22;7101;51.600;7.310;2024-03-02T01:27:51;7.50;3.40
14053;DHT22;7101;51.600;7.310;2024-03-02T01:30:18;7.50;90.70
14053;DHT22;7101;51.600;7.310;2024-03-02T01:32:45;7.50;43.20
14053;DHT22;7101;51.600;7.310;2024-03-02T01:35:12;7.50;45.40
14053;DHT22;7101;51.600;7.310;2024-03-02T01:37:40;7.40;90.90
14053;DHT22;7101;51.600;7.310;2024-03-02T01:40:08;7.50;53.90
14053;DHT22;7101;51.600;7.310;2024-03-02T01:42:37;7.50;18.40
14053;DHT22;7101;51.600;7.310;2024-03-02T01:45:05;7.50;1.00
14053;DHT22;7101;51.600;7.310;2024-03-02T01:47:33;7.50;1.00
14053;DHT22;7101;51.600;7.310;2024-03-02T01:50:00;7.30;99.90
14053;DHT22;7101;51.600;7.310;2024-03-02T01:52:27;7.30;99.90
14053;DHT22;7101;51.600;7.310;2024-03-02T01:54:55;7.40;89.00
14053;DHT22;7101;51.600;7.310;2024-03-02T01:57:21;7.40;92.50
14053;DHT22;7101;51.600;7.310;2024-03-02T01:59:50;7.40;38.10
14053;DHT22;7101;51.600;7.310;2024-03-02T02:02:17;7.40;1.00
14053;DHT22;7101;51.600;7.310;2024-03-02T02:04:44;7.40;1.00
14053;DHT22;7101;51.600;7.310;2024-03-02T02:07:10;7.40;9.30
14053;DHT22;7101;51.600;7.310;2024-03-02T02:09:39;7.30;71.60
14053;DHT22;7101;51.600;7.310;2024-03-02T02:12:06;7.20;92.90
14053;DHT22;7101;51.600;7.310;2024-03-02T02:14:33;7.10;99.90
14053;DHT22;7101;51.600;7.310;2024-03-02T02:17:02;7.10;99.90
14053;DHT22;7101;51.600;7.310;2024-03-02T02:19:28;7.10;99.90
14053;DHT22;7101;51.600;7.310;2024-03-02T02:21:57;7.10;99.90
14053;DHT22;7101;51.600;7.310;2024-03-02T02:24:24;7.10;99.90
14053;DHT22;7101;51.600;7.310;2024-03-02T02:26:50;7.10;99.90
14053;DHT22;7101;51.600;7.310;2024-03-02T02:29:17;7.10;99.90
14053;DHT22;7101;51.600;7.310;2024-03-02T02:31:44;7.00;99.90
14053;DHT22;7101;51.600;7.310;2024-03-02T02:34:11;7.10;99.90
14053;DHT22;7101;51.600;7.310;2024-03-02T02:36:38;7.20;99.90
14053;DHT22;7101;51.600;7.310;2024-03-02T02:39:10;7.20;99.90
14053;DHT22;7101;51.600;7.310;2024-03-02T02:41:37;7.20;99.90
14053;DHT22;7101;51.600;7.310;2024-03-02T02:44:04;7.10;99.90
14053;DHT22;7101;51.600;7.310;2024-03-02T02:46:31;7.10;99.90
14053;DHT22;7101;51.600;7.310;2024-03-02T02:48:58;7.20;99.90
14053;DHT22;7101;51.600;7.310;2024-03-02T02:51:25;7.30;99.90
14053;DHT22;7101;51.600;7.310;2024-03-02T02:53:52;7.40;99.90
14053;DHT22;7101;51.600;7.310;2024-03-02T02:56:20;7.50;1.00
14053;DHT22;7101;51.600;7.310;2024-03-02T02:58:53;7.60;1.00
14053;DHT22;7101;51.600;7.310;2024-03-02T03:01:20;7.60;1.00
14053;DHT22;7101;51.600;7.310;2024-03-02T03:03:47;7.70;1.00
14053;DHT22;7101;51.600;7.310;2024-03-02T03:06:13;7.70;1.00
14053;DHT22;7101;51.600;7.310;2024-03-02T03:08:40;7.70;1.00
14053;DHT22;7101;51.600;7.310;2024-03-02T03:11:07;7.70;1.00
14053;DHT22;7101;51.600;7.310;2024-03-02T03:13:35;7.60;1.00
14053;DHT22;7101;51.600;7.310;2024-03-02T03:16:02;7.60;1.00
14053;DHT22;7101;51.600;7.310;2024-03-02T03:18:29;7.70;1.00
14053;DHT22;7101;51.600;7.310;2024-03-02T03:20:56;7.60;1.00
14053;DHT22;7101;51.600;7.310;2024-03-02T03:23:23;7.70;1.00
14053;DHT22;7101;51.600;7.310;2024-03-02T03:25:51;7.80;1.00
14053;DHT22;7101;51.600;7.310;2024-03-02T03:28:18;7.90;1.00
14053;DHT22;7101;51.600;7.310;2024-03-02T03:30:46;8.00;1.00
14053;DHT22;7101;51.600;7.310;2024-03-02T03:33:13;8.00;1.00
14053;DHT22;7101;51.600;7.310;2024-03-02T03:35:39;8.00;1.00
14053;DHT22;7101;51.600;7.310;2024-03-02T03:38:06;8.10;99.90
14053;DHT22;7101;51.600;7.310;2024-03-02T03:40:33;8.10;99.90
14053;DHT22;7101;51.600;7.310;2024-03-02T03:43:00;8.20;99.90
14053;DHT22;7101;51.600;7.310;2024-03-02T03:45:26;8.20;99.90
14053;DHT22;7101;51.600;7.310;2024-03-02T03:47:56;8.30;99.90
14053;DHT22;7101;51.600;7.310;2024-03-02T03:50:22;8.30;99.90
14053;DHT22;7101;51.600;7.310;2024-03-02T03:52:49;8.30;99.90
14053;DHT22;7101;51.600;7.310;2024-03-02T03:55:16;8.30;99.90
14053;DHT22;7101;51.600;7.310;2024-03-02T03:57:42;8.20;99.90
14053;DHT22;7101;51.600;7.310;2024-03-02T04:00:09;8.20;99.90
14053;DHT22;7101;51.600;7.310;2024-03-02T04:02:37;8.10;99.90
14053;DHT22;7101;51.600;7.310;2024-03-02T04:05:06;8.00;99.90
14053;DHT22;7101;51.600;7.310;2024-03-02T04:07:35;8.10;99.90
14053;DHT22;7101;51.600;7.310;2024-03-02T04:10:07;8.10;99.90
14053;DHT22;7101;51.600;7.310;2024-03-02T04:12:34;8.20;99.90
14053;DHT22;7101;51.600;7.310;2024-03-02T04:15:01;8.20;99.90
14053;DHT22;7101;51.600;7.310;2024-03-02T04:17:31;8.10;99.90
14053;DHT22;7101;51.600;7.310;2024-03-02T04:19:57;8.00;99.90
14053;DHT22;7101;51.600;7.310;2024-03-02T04:22:26;7.90;99.90
14053;DHT22;7101;51.600;7.310;2024-03-02T04:24:53;7.90;99.90
14053;DHT22;7101;51.600;7.310;2024-03-02T04:27:20;7.80;99.90
14053;DHT22;7101;51.600;7.310;2024-03-02T04:29:46;7.70;1.00
14053;DHT22;7101;51.600;7.310;2024-03-02T04:32:13;7.60;1.00
14053;DHT22;7101;51.600;7.310;2024-03-02T04:34:40;7.60;1.00
14053;DHT22;7101;51.600;7.310;2024-03-02T04:37:07;7.60;1.00
14053;DHT22;7101;51.600;7.310;2024-03-02T04:39:36;7.60;1.00
14053;DHT22;7101;51.600;7.310;2024-03-02T04:42:04;7.60;1.00
14053;DHT22;7101;51.600;7.310;2024-03-02T04:44:30;7.60;1.00
14053;DHT22;7101;51.600;7.310;2024-03-02T04:46:57;7.50;1.00
14053;DHT22;7101;51.600;7.310;2024-03-02T04:49:24;7.50;1.00
14053;DHT22;7101;51.600;7.310;2024-03-02T04:51:51;7.60;1.00
14053;DHT22;7101;51.600;7.310;2024-03-02T04:54:18;7.60;1.00
14053;DHT22;7101;51.600;7.310;2024-03-02T04:56:47;7.60;1.00
14053;DHT22;7101;51.600;7.310;2024-03-02T04:59:16;7.60;1.00
14053;DHT22;7101;51.600;7.310;2024-03-02T05:01:43;7.40;1.00
14053;DHT22;7101;51.600;7.310;2024-03-02T05:04:10;7.40;1.00
14053;DHT22;7101;51.600;7.310;2024-03-02T05:06:37;7.30;1.00
14053;DHT22;7101;51.600;7.310;2024-03-02T05:09:05;7.30;1.00
14053;DHT22;7101;51.600;7.310;2024-03-02T05:11:32;7.20;1.00
14053;DHT22;7101;51.600;7.310;2024-03-02T05:14:26;7.20;1.00
14053;DHT22;7101;51.600;7.310;2024-03-02T05:16:53;7.20;1.00
14053;DHT22;7101;51.600;7.310;2024-03-02T05:19:20;7.20;1.00
14053;DHT22;7101;51.600;7.310;2024-03-02T05:21:47;7.10;19.40
14053;DHT22;7101;51.600;7.310;2024-03-02T05:24:15;7.10;3.70
14053;DHT22;7101;51.600;7.310;2024-03-02T05:26:42;7.10;39.20
14053;DHT22;7101;51.600;7.310;2024-03-02T05:29:09;7.00;99.90
14053;DHT22;7101;51.600;7.310;2024-03-02T05:31:37;7.00;99.90
14053;DHT22;7101;51.600;7.310;2024-03-02T05:34:04;7.00;99.90
14053;DHT22;7101;51.600;7.310;2024-03-02T05:36:30;6.90;99.90
14053;DHT22;7101;51.600;7.310;2024-03-02T05:38:57;6.90;99.90
14053;DHT22;7101;51.600;7.310;2024-03-02T05:41:24;6.90;99.90
14053;DHT22;7101;51.600;7.310;2024-03-02T05:43:51;6.80;99.90
14053;DHT22;7101;51.600;7.310;2024-03-02T05:46:17;6.80;99.90
14053;DHT22;7101;51.600;7.310;2024-03-02T05:48:45;6.80;99.90
14053;DHT22;7101;51.600;7.310;2024-03-02T05:51:12;6.80;99.90
14053;DHT22;7101;51.600;7.310;2024-03-02T05:53:40;6.80;99.90
14053;DHT22;7101;51.600;7.310;2024-03-02T05:56:07;6.80;99.90
14053;DHT22;7101;51.600;7.310;2024-03-02T05:58:34;6.90;99.90
14053;DHT22;7101;51.600;7.310;2024-03-02T06:01:13;6.90;99.90
14053;DHT22;7101;51.600;7.310;2024-03-02T06:03:40;6.90;99.90
14053;DHT22;7101;51.600;7.310;2024-03-02T06:06:09;6.90;99.90
14053;DHT22;7101;51.600;7.310;2024-03-02T06:08:36;6.80;99.90
14053;DHT22;7101;51.600;7.310;2024-03-02T06:11:08;6.80;99.90
14053;DHT22;7101;51.600;7.310;2024-03-02T06:13:35;6.80;99.90
14053;DHT22;7101;51.600;7.310;2024-03-02T06:16:02;6.70;99.90
14053;DHT22;7101;51.600;7.310;2024-03-02T06:18:29;6.80;99.90
14053;DHT22;7101;51.600;7.310;2024-03-02T06:20:55;6.80;99.90
14053;DHT22;7101;51.600;7.310;2024-03-02T06:23:24;6.70;99.90
14053;DHT22;7101;51.600;7.310;2024-03-02T06:25:50;6.80;99.90
14053;DHT22;7101;51.600;7.310;2024-03-02T06:28:17;6.70;99.90
14053;DHT22;7101;51.600;7.310;2024-03-02T06:30:44;6.70;99.90
14053;DHT22;7101;51.600;7.310;2024-03-02T06:33:11;6.70;99.90
14053;DHT22;7101;51.600;7.310;2024-03-02T06:35:38;6.90;99.90
14053;DHT22;7101;51.600;7.310;2024-03-02T06:38:05;7.00;99.90
14053;DHT22;7101;51.600;7.310;2024-03-02T06:40:33;7.10;99.90
14053;DHT22;7101;51.600;7.310;2024-03-02T06:43:01;7.20;99.90
14053;DHT22;7101;51.600;7.310;2024-03-02T06:45:28;7.30;99.90
14053;DHT22;7101;51.600;7.310;2024-03-02T06:47:56;7.30;98.40
14053;DHT22;7101;51.600;7.310;2024-03-02T06:50:22;7.40;13.50
14053;DHT22;7101;51.600;7.310;2024-03-02T06:52:49;7.40;16.70
14053;DHT22;7101;51.600;7.310;2024-03-02T06:55:16;7.50;1.00
14053;DHT22;7101;51.600;7.310;2024-03-02T06:57:44;7.60;1.00
14053;DHT22;7101;51.600;7.310;2024-03-02T07:00:13;7.60;1.00
14053;DHT22;7101;51.600;7.310;2024-03-02T07:02:40;7.60;1.00
14053;DHT22;7101;51.600;7.310;2024-03-02T07:05:07;7.60;1.00
14053;DHT22;7101;51.600;7.310;2024-03-02T07:07:34;7.70;1.00
14053;DHT22;7101;51.600;7.310;2024-03-02T07:10:02;8.30;1.00
14053;DHT22;7101;51.600;7.310;2024-03-02T07:12:29;9.00;99.90
14053;DHT22;7101;51.600;7.310;2024-03-02T07:14:57;9.60;1.00
14053;DHT22;7101;51.600;7.310;2024-03-02T07:17:50;10.20;1.00
14053;DHT22;7101;51.600;7.310;2024-03-02T07:20:17;11.00;1.00
14053;DHT22;7101;51.600;7.310;2024-03-02T07:22:44;11.40;99.90
14053;DHT22;7101;51.600;7.310;2024-03-02T07:25:11;11.60;1.00
14053;DHT22;7101;51.600;7.310;2024-03-02T07:27:38;12.10;1.00
14053;DHT22;7101;51.600;7.310;2024-03-02T07:30:07;12.50;1.00
14053;DHT22;7101;51.600;7.310;2024-03-02T07:32:34;12.30;15.70
14053;DHT22;7101;51.600;7.310;2024-03-02T07:35:01;12.70;1.00
14053;DHT22;7101;51.600;7.310;2024-03-02T07:37:29;12.50;1.00
14053;DHT22;7101;51.600;7.310;2024-03-02T07:39:56;12.50;1.00
14053;DHT22;7101;51.600;7.310;2024-03-02T07:42:23;12.70;1.00
14053;DHT22;7101;51.600;7.310;2024-03-02T07:44:50;12.50;1.00
14053;DHT22;7101;51.600;7.310;2024-03-02T07:47:18;12.40;1.00
14053;DHT22;7101;51.600;7.310;2024-03-02T07:49:45;12.60;1.00
14053;DHT22;7101;51.600;7.310;2024-03-02T07:52:12;12.70;1.00
14053;DHT22;7101;51.600;7.310;2024-03-02T07:54:39;12.80;1.00
14053;DHT22;7101;51.600;7.310;2024-03-02T07:57:06;12.60;99.90
14053;DHT22;7101;51.600;7.310;2024-03-02T07:59:34;12.60;1.00
14053;DHT22;7101;51.600;7.310;2024-03-02T08:02:01;13.00;99.90
14053;DHT22;7101;51.600;7.310;2024-03-02T08:04:29;13.10;99.90
14053;DHT22;7101;51.600;7.310;2024-03-02T08:06:56;13.00;99.90
14053;DHT22;7101;51.600;7.310;2024-03-02T08:09:22;12.70;1.00
14053;DHT22;7101;51.600;7.310;2024-03-02T08:11:49;12.50;1.00
14053;DHT22;7101;51.600;7.310;2024-03-02T08:14:16;12.30;1.00
14053;DHT22;7101;51.600;7.310;2024-03-02T08:16:43;12.10;99.90
14053;DHT22;7101;51.600;7.310;2024-03-02T08:19:10;11.90;99.90
14053;DHT22;7101;51.600;7.310;2024-03-02T08:21:39;11.60;1.00
14053;DHT22;7101;51.600;7.310;2024-03-02T08:24:06;11.50;99.90
14053;DHT22;7101;51.600;7.310;2024-03-02T08:26:33;11.20;99.90
14053;DHT22;7101;51.600;7.310;2024-03-02T08:29:01;11.10;99.90
14053;DHT22;7101;51.600;7.310;2024-03-02T08:31:29;11.20;1.00
14053;DHT22;7101;51.600;7.310;2024-03-02T08:33:56;11.20;99.90
14053;DHT22;7101;51.600;7.310;2024-03-02T08:36:24;11.40;1.00
14053;DHT22;7101;51.600;7.310;2024-03-02T08:38:52;11.40;1.00
14053;DHT22;7101;51.600;7.310;2024-03-02T08:41:19;11.40;99.90
14053;DHT22;7101;51.600;7.310;2024-03-02T08:43:46;11.50;99.90
14053;DHT22;7101;51.600;7.310;2024-03-02T08:46:13;11.30;1.00
14053;DHT22;7101;51.600;7.310;2024-03-02T08:48:40;11.30;1.00
14053;DHT22;7101;51.600;7.310;2024-03-02T08:51:07;11.30;1.00
14053;DHT22;7101;51.600;7.310;2024-03-02T08:53:35;11.30;20.60
14053;DHT22;7101;51.600;7.310;2024-03-02T08:56:05;11.40;99.90
14053;DHT22;7101;51.600;7.310;2024-03-02T08:58:32;11.50;1.00
14053;DHT22;7101;51.600;7.310;2024-03-02T09:00:58;11.60;36.40
14053;DHT22;7101;51.600;7.310;2024-03-02T09:03:25;11.60;1.00
14053;DHT22;7101;51.600;7.310;2024-03-02T09:05:52;11.60;1.00
14053;DHT22;7101;51.600;7.310;2024-03-02T09:08:19;11.60;1.00
14053;DHT22;7101;51.600;7.310;2024-03-02T09:10:46;11.60;1.00
14053;DHT22;7101;51.600;7.310;2024-03-02T09:13:15;11.50;99.90
14053;DHT22;7101;51.600;7.310;2024-03-02T09:15:42;11.70;1.00
14053;DHT22;7101;51.600;7.310;2024-03-02T09:18:09;11.80;1.00
14053;DHT22;7101;51.600;7.310;2024-03-02T09:20:36;12.00;1.00
14053;DHT22;7101;51.600;7.310;2024-03-02T09:23:03;11.80;99.90
14053;DHT22;7101;51.600;7.310;2024-03-02T09:25:30;11.80;99.90
14053;DHT22;7101;51.600;7.310;2024-03-02T09:27:57;12.00;1.00
14053;DHT22;7101;51.600;7.310;2024-03-02T09:30:25;12.10;1.00
14053;DHT22;7101;51.600;7.310;2024-03-02T09:32:52;12.10;1.00
14053;DHT22;7101;51.600;7.310;2024-03-02T09:35:18;12.00;1.00
14053;DHT22;7101;51.600;7.310;2024-03-02T09:37:45;12.00;1.00
14053;DHT22;7101;51.600;7.310;2024-03-02T09:40:13;12.10;1.00
14053;DHT22;7101;51.600;7.310;2024-03-02T09:42:41;12.20;99.90
14053;DHT22;7101;51.600;7.310;2024-03-02T09:45:09;12.20;1.00
14053;DHT22;7101;51.600;7.310;2024-03-02T09:47:37;12.10;1.00
14053;DHT22;7101;51.600;7.310;2024-03-02T09:50:05;12.20;1.00
14053;DHT22;7101;51.600;7.310;2024-03-02T09:52:33;12.30;1.00
14053;DHT22;7101;51.600;7.310;2024-03-02T09:55:00;12.20;1.00
14053;DHT22;7101;51.600;7.310;2024-03-02T09:57:27;12.20;1.00
14053;DHT22;7101;51.600;7.310;2024-03-02T09:59:54;12.40;99.90
14053;DHT22;7101;51.600;7.310;2024-03-02T10:02:21;12.40;99.90
14053;DHT22;7101;51.600;7.310;2024-03-02T10:04:50;12.30;30.50
14053;DHT22;7101;51.600;7.310;2024-03-02T10:07:18;12.30;1.00
14053;DHT22;7101;51.600;7.310;2024-03-02T10:09:46;12.40;99.90
14053;DHT22;7101;51.600;7.310;2024-03-02T10:12:15;12.40;1.00
14053;DHT22;7101;51.600;7.310;2024-03-02T10:14:43;12.30;1.00
14053;DHT22;7101;51.600;7.310;2024-03-02T10:17:13;12.40;36.00
14053;DHT22;7101;51.600;7.310;2024-03-02T10:19:40;12.40;1.00
14053;DHT22;7101;51.600;7.310;2024-03-02T10:22:09;12.40;99.90
14053;DHT22;7101;51.600;7.310;2024-03-02T10:24:38;12.50;1.00
14053;DHT22;7101;51.600;7.310;2024-03-02T10:27:09;12.60;99.90
14053;DHT22;7101;51.600;7.310;2024-03-02T10:29:39;12.70;99.90
14053;DHT22;7101;51.600;7.310;2024-03-02T10:32:08;12.70;99.90
14053;DHT22;7101;51.600;7.310;2024-03-02T10:34:36;12.80;99.90
14053;DHT22;7101;51.600;7.310;2024-03-02T10:37:04;12.80;1.00
14053;DHT22;7101;51.600;7.310;2024-03-02T10:39:34;12.90;1.00
14053;DHT22;7101;51.600;7.310;2024-03-02T10:42:02;13.00;99.90
14053;DHT22;7101;51.600;7.310;2024-03-02T10:44:30;12.90;99.90
14053;DHT22;7101;51.600;7.310;2024-03-02T10:47:00;12.90;1.00
14053;DHT22;7101;51.600;7.310;2024-03-02T10:49:29;13.00;1.00
14053;DHT22;7101;51.600;7.310;2024-03-02T10:51:57;13.00;99.90
14053;DHT22;7101;51.600;7.310;2024-03-02T10:54:24;13.00;99.90
14053;DHT22;7101;51.600;7.310;2024-03-02T10:56:59;13.10;99.90
14053;DHT22;7101;51.600;7.310;2024-03-02T10:59:33;13.00;1.00
14053;DHT22;7101;51.600;7.310;2024-03-02T11:02:01;13.20;99.90
14053;DHT22;7101;51.600;7.310;2024-03-02T11:04:29;13.10;1.00
14053;DHT22;7101;51.600;7.310;2024-03-02T11:07:00;13.10;92.20
14053;DHT22;7101;51.600;7.310;2024-03-02T11:09:29;13.20;99.90
14053;DHT22;7101;51.600;7.310;2024-03-02T11:12:02;13.30;99.90
14053;DHT22;7101;51.600;7.310;2024-03-02T11:14:30;13.40;99.90
14053;DHT22;7101;51.600;7.310;2024-03-02T11:16:59;13.40;99.90
14053;DHT22;7101;51.600;7.310;2024-03-02T11:19:27;13.30;99.90
14053;DHT22;7101;51.600;7.310;2024-03-02T11:21:54;13.20;99.90
14053;DHT22;7101;51.600;7.310;2024-03-02T11:24:28;13.30;49.70
14053;DHT22;7101;51.600;7.310;2024-03-02T11:27:01;13.40;99.90
14053;DHT22;7101;51.600;7.310;2024-03-02T11:29:44;13.60;1.00
14053;DHT22;7101;51.600;7.310;2024-03-02T11:32:15;13.70;1.00
14053;DHT22;7101;51.600;7.310;2024-03-02T11:34:43;13.80;1.00
14053;DHT22;7101;51.600;7.310;2024-03-02T11:37:12;13.70;99.90
14053;DHT22;7101;51.600;7.310;2024-03-02T11:39:39;13.70;1.00
14053;DHT22;7101;51.600;7.310;2024-03-02T11:42:08;13.60;99.90
14053;DHT22;7101;51.600;7.310;2024-03-02T11:44:35;13.60;60.50
14053;DHT22;7101;51.600;7.310;2024-03-02T11:47:05;13.60;99.90
14053;DHT22;7101;51.600;7.310;2024-03-02T11:49:39;13.60;99.90
14053;DHT22;7101;51.600;7.310;2024-03-02T11:52:08;13.70;1.00
14053;DHT22;7101;51.600;7.310;2024-03-02T11:54:36;13.70;1.00
14053;DHT22;7101;51.600;7.310;2024-03-02T11:57:06;13.90;99.90
14053;DHT22;7101;51.600;7.310;2024-03-02T11:59:34;13.80;99.90
14053;DHT22;7101;51.600;7.310;2024-03-02T12:02:02;13.80;99.90
14053;DHT22;7101;51.600;7.310;2024-03-02T12:04:29;13.80;99.90
14053;DHT22;7101;51.600;7.310;2024-03-02T12:06:58;13.90;99.90
14053;DHT22;7101;51.600;7.310;2024-03-02T12:09:26;13.90;99.90
14053;DHT22;7101;51.600;7.310;2024-03-02T12:12:04;14.00;99.90
14053;DHT22;7101;51.600;7.310;2024-03-02T12:14:31;14.00;99.90
14053;DHT22;7101;51.600;7.310;2024-03-02T12:16:59;14.10;99.90
14053;DHT22;7101;51.600;7.310;2024-03-02T12:19:27;14.10;99.90
14053;DHT22;7101;51.600;7.310;2024-03-02T12:21:56;14.10;99.90
14053;DHT22;7101;51.600;7.310;2024-03-02T12:24:24;14.10;99.90
14053;DHT22;7101;51.600;7.310;2024-03-02T12:26:51;14.20;99.90
14053;DHT22;7101;51.600;7.310;2024-03-02T12:29:19;14.30;1.00
14053;DHT22;7101;51.600;7.310;2024-03-02T12:31:47;14.30;99.90
14053;DHT22;7101;51.600;7.310;2024-03-02T12:34:17;14.20;1.00
14053;DHT22;7101;51.600;7.310;2024-03-02T12:36:45;14.20;1.00
14053;DHT22;7101;51.600;7.310;2024-03-02T12:39:15;14.30;1.00
14053;DHT22;7101;51.600;7.310;2024-03-02T12:41:43;14.30;1.00
14053;DHT22;7101;51.600;7.310;2024-03-02T12:44:09;14.20;1.00
14053;DHT22;7101;51.600;7.310;2024-03-02T12:46:38;14.10;1.00
14053;DHT22;7101;51.600;7.310;2024-03-02T12:49:09;13.90;1.00
14053;DHT22;7101;51.600;7.310;2024-03-02T12:51:39;14.00;1.00
14053;DHT22;7101;51.600;7.310;2024-03-02T12:54:07;14.20;99.90
14053;DHT22;7101;51.600;7.310;2024-03-02T12:56:35;14.30;39.00
14053;DHT22;7101;51.600;7.310;2024-03-02T12:59:03;14.50;1.00
14053;DHT22;7101;51.600;7.310;2024-03-02T13:01:30;14.70;1.00
14053;DHT22;7101;51.600;7.310;2024-03-02T13:03:58;14.70;1.00
14053;DHT22;7101;51.600;7.310;2024-03-02T13:06:26;14.80;1.00
14053;DHT22;7101;51.600;7.310;2024-03-02T13:08:55;14.70;1.00
14053;DHT22;7101;51.600;7.310;2024-03-02T13:11:23;14.70;1.00
14053;DHT22;7101;51.600;7.310;2024-03-02T13:13:50;14.80;1.00
14053;DHT22;7101;51.600;7.310;2024-03-02T13:16:18;14.70;1.00
14053;DHT22;7101;51.600;7.310;2024-03-02T13:18:45;14.50;1.00
14053;DHT22;7101;51.600;7.310;2024-03-02T13:21:12;14.40;1.00
14053;DHT22;7101;51.600;7.310;2024-03-02T13:23:39;14.30;99.90
14053;DHT22;7101;51.600;7.310;2024-03-02T13:26:07;14.30;99.90
14053;DHT22;7101;51.600;7.310;2024-03-02T13:28:36;14.30;1.00
14053;DHT22;7101;51.600;7.310;2024-03-02T13:31:03;14.30;42.90
14053;DHT22;7101;51.600;7.310;2024-03-02T13:33:31;14.20;99.90
14053;DHT22;7101;51.600;7.310;2024-03-02T13:35:58;14.20;1.00
14053;DHT22;7101;51.600;7.310;2024-03-02T13:38:25;14.20;99.90
14053;DHT22;7101;51.600;7.310;2024-03-02T13:40:52;14.30;99.90
14053;DHT22;7101;51.600;7.310;2024-03-02T13:43:20;14.50;99.90
14053;DHT22;7101;51.600;7.310;2024-03-02T13:45:48;14.40;1.00
14053;DHT22;7101;51.600;7.310;2024-03-02T13:48:14;14.40;1.00
14053;DHT22;7101;51.600;7.310;2024-03-02T13:50:42;14.40;1.00
14053;DHT22;7101;51.600;7.310;2024-03-02T13:53:11;14.40;1.00
14053;DHT22;7101;51.600;7.310;2024-03-02T13:55:37;14.30;99.90
14053;DHT22;7101;51.600;7.310;2024-03-02T13:58:04;14.30;1.00
14053;DHT22;7101;51.600;7.310;2024-03-02T14:00:33;14.30;1.00
14053;DHT22;7101;51.600;7.310;2024-03-02T14:02:59;14.30;23.30
14053;DHT22;7101;51.600;7.310;2024-03-02T14:05:26;14.40;99.90
14053;DHT22;7101;51.600;7.310;2024-03-02T14:07:53;14.60;1.00
14053;DHT22;7101;51.600;7.310;2024-03-02T14:10:20;14.60;1.00
14053;DHT22;7101;51.600;7.310;2024-03-02T14:12:48;14.60;1.00
14053;DHT22;7101;51.600;7.310;2024-03-02T14:15:15;14.70;1.00
14053;DHT22;7101;51.600;7.310;2024-03-02T14:17:43;14.70;1.00
14053;DHT22;7101;51.600;7.310;2024-03-02T14:20:10;14.50;1.00
14053;DHT22;7101;51.600;7.310;2024-03-02T14:22:39;14.50;1.00
14053;DHT22;7101;51.600;7.310;2024-03-02T14:25:06;14.30;1.00
14053;DHT22;7101;51.600;7.310;2024-03-02T14:27:33;14.30;1.00
14053;DHT22;7101;51.600;7.310;2024-03-02T14:30:01;14.20;3.60
14053;DHT22;7101;51.600;7.310;2024-03-02T14:32:28;14.20;1.00
14053;DHT22;7101;51.600;7.310;2024-03-02T14:34:56;14.30;1.00
14053;DHT22;7101;51.600;7.310;2024-03-02T14:37:23;14.30;1.00
14053;DHT22;7101;51.600;7.310;2024-03-02T14:39:50;14.40;1.00
14053;DHT22;7101;51.600;7.310;2024-03-02T14:42:17;14.30;1.00
14053;DHT22;7101;51.600;7.310;2024-03-02T14:44:44;14.20;1.00
14053;DHT22;7101;51.600;7.310;2024-03-02T14:47:11;14.20;1.00
14053;DHT22;7101;51.600;7.310;2024-03-02T14:49:38;14.20;1.00
14053;DHT22;7101;51.600;7.310;2024-03-02T14:52:07;14.10;1.00
14053;DHT22;7101;51.600;7.310;2024-03-02T14:54:34;14.20;1.00
14053;DHT22;7101;51.600;7.310;2024-03-02T14:57:01;14.30;1.00
14053;DHT22;7101;51.600;7.310;2024-03-02T14:59:31;14.20;1.00
14053;DHT22;7101;51.600;7.310;2024-03-02T15:01:59;14.20;1.00
14053;DHT22;7101;51.600;7.310;2024-03-02T15:04:27;14.20;1.00
14053;DHT22;7101;51.600;7.310;2024-03-02T15:06:54;14.10;1.00
14053;DHT22;7101;51.600;7.310;2024-03-02T15:09:22;14.00;1.00
14053;DHT22;7101;51.600;7.310;2024-03-02T15:11:50;14.00;1.00
14053;DHT22;7101;51.600;7.310;2024-03-02T15:14:17;13.90;1.00
14053;DHT22;7101;51.600;7.310;2024-03-02T15:16:43;13.90;1.00
14053;DHT22;7101;51.600;7.310;2024-03-02T15:19:10;13.90;99.90
14053;DHT22;7101;51.600;7.310;2024-03-02T15:21:38;13.90;1.00
14053;DHT22;7101;51.600;7.310;2024-03-02T15:24:05;13.90;1.00
14053;DHT22;7101;51.600;7.310;2024-03-02T15:26:33;13.90;99.90
14053;DHT22;7101;51.600;7.310;2024-03-02T15:29:01;13.90;99.90
14053;DHT22;7101;51.600;7.310;2024-03-02T15:31:28;13.90;99.90
14053;DHT22;7101;51.600;7.310;2024-03-02T15:33:55;13.70;99.90
14053;DHT22;7101;51.600;7.310;2024-03-02T15:36:22;13.70;99.90
14053;DHT22;7101;51.600;7.310;2024-03-02T15:38:49;13.60;99.90
14053;DHT22;7101;51.600;7.310;2024-03-02T15:41:16;13.70;1.00
14053;DHT22;7101;51.600;7.310;2024-03-02T15:43:44;13.60;1.00
14053;DHT22;7101;51.600;7.310;2024-03-02T15:46:13;13.60;99.90
14053;DHT22;7101;51.600;7.310;2024-03-02T15:48:40;13.60;1.00
14053;DHT22;7101;51.600;7.310;2024-03-02T15:51:06;13.60;1.00
14053;DHT22;7101;51.600;7.310;2024-03-02T15:53:35;13.50;1.00
14053;DHT22;7101;51.600;7.310;2024-03-02T15:56:02;13.40;1.00
14053;DHT22;7101;51.600;7.310;2024-03-02T15:58:29;13.40;1.00
14053;DHT22;7101;51.600;7.310;2024-03-02T16:00:57;13.50;1.00
14053;DHT22;7101;51.600;7.310;2024-03-02T16:03:24;13.50;1.00